Time;durP1;ratioP1;P1;durP2;ratioP2;P2;SDS_P1;SDS_P2;PMS_P1;PMS_P2;Temp;Humidity;BMP_temperature;BMP_pressure;BME280_temperature;BME280_humidity;BME280_pressure;Samples;Min_cycle;Max_cycle;Signal;HPM_P1;HPM_P2
2023/08/10 00:00:43;;;;;;;8.60;1.45;;;;;;;;;;5084769;28;20051;-57
2023/08/10 00:03:09;;;;;;;5.35;1.58;;;;;;;;;;5085495;28;20044;-57
2023/08/10 00:05:37;;;;;;;7.50;1.25;;;;;;;;;;5099020;28;20036;-57
2023/08/10 00:08:03;;;;;;;4.03;1.00;;;;;;;;;;5082699;28;20083;-57
2023/08/10 00:10:29;;;;;;;5.65;1.25;;;;;;;;;;5081840;28;20818;-56
2023/08/10 00:12:55;;;;;;;4.38;1.17;;;;;;;;;;5082526;28;20048;-56
2023/08/10 00:15:21;;;;;;;8.02;1.58;;;;;;;;;;5090736;28;20032;-57
2023/08/10 00:17:49;;;;;;;6.57;1.30;;;;;;;;;;5088622;28;20040;-57
2023/08/10 00:20:15;;;;;;;7.18;1.42;;;;;;;;;;5083506;28;20068;-57
2023/08/10 00:22:41;;;;;;;7.15;1.70;;;;;;;;;;5083473;28;20408;-57
2023/08/10 00:25:07;;;;;;;5.75;1.40;;;;;;;;;;5084533;28;20097;-56
2023/08/10 00:27:35;;;;;;;5.45;1.40;;;;;;;;;;5081904;28;20060;-57
2023/08/10 00:30:01;;;;;;;4.80;1.50;;;;;;;;;;5081552;28;20056;-56
2023/08/10 00:32:27;;;;;;;5.13;1.35;;;;;;;;;;5083289;28;20132;-57
2023/08/10 00:34:53;;;;;;;4.45;1.40;;;;;;;;;;5084087;28;20050;-57
2023/08/10 00:37:19;;;;;;;4.50;1.10;;;;;;;;;;5081357;28;20040;-57
2023/08/10 00:39:45;;;;;;;3.78;1.27;;;;;;;;;;5090098;28;20044;-57
2023/08/10 00:42:12;;;;;;;5.90;1.35;;;;;;;;;;5081494;28;20488;-57
2023/08/10 00:44:39;;;;;;;4.68;1.60;;;;;;;;;;5095532;28;20039;-57
2023/08/10 00:47:06;;;;;;;5.63;1.80;;;;;;;;;;5092660;28;20043;-57
2023/08/10 00:49:32;;;;;;;6.10;1.83;;;;;;;;;;5089234;28;20127;-57
2023/08/10 00:51:59;;;;;;;4.22;1.77;;;;;;;;;;5072537;28;20052;-56
2023/08/10 00:54:26;;;;;;;6.95;1.67;;;;;;;;;;5099015;28;20040;-57
2023/08/10 00:56:52;;;;;;;5.47;2.65;;;;;;;;;;5087248;28;20044;-57
2023/08/10 00:59:18;;;;;;;6.55;2.10;;;;;;;;;;5091165;28;20032;-57
2023/08/10 01:01:44;;;;;;;7.28;2.30;;;;;;;;;;5093633;28;20048;-57
2023/08/10 01:04:11;;;;;;;9.40;2.30;;;;;;;;;;5091062;28;20028;-57
2023/08/10 01:06:53;;;;;;;6.22;2.30;;;;;;;;;;5097388;28;20406;-57
2023/08/10 01:09:34;;;;;;;5.47;2.30;;;;;;;;;;5103813;28;20036;-57
2023/08/10 01:12:00;;;;;;;7.05;2.40;;;;;;;;;;5093320;28;20040;-57
2023/08/10 01:14:31;;;;;;;12.55;2.90;;;;;;;;;;5094236;28;20094;-56
2023/08/10 01:16:58;;;;;;;8.45;2.33;;;;;;;;;;5097024;28;20040;-56
2023/08/10 01:19:35;;;;;;;4.70;2.15;;;;;;;;;;5105123;28;20032;-57
2023/08/10 01:22:17;;;;;;;4.72;2.38;;;;;;;;;;5107102;28;20071;-57
2023/08/10 01:24:43;;;;;;;7.18;2.22;;;;;;;;;;5091417;28;20077;-57
2023/08/10 01:27:14;;;;;;;9.70;2.80;;;;;;;;;;5100248;28;20138;-57
2023/08/10 01:29:41;;;;;;;7.05;2.47;;;;;;;;;;5093706;27;20129;-57
2023/08/10 01:32:13;;;;;;;7.47;2.20;;;;;;;;;;5095861;28;20468;-57
2023/08/10 01:34:40;;;;;;;6.13;2.33;;;;;;;;;;5094902;28;20068;-57
2023/08/10 01:37:06;;;;;;;8.52;2.85;;;;;;;;;;5092095;28;20082;-57
2023/08/10 01:39:32;;;;;;;7.60;2.70;;;;;;;;;;5101997;28;20128;-57
2023/08/10 01:41:59;;;;;;;9.25;3.53;;;;;;;;;;5092906;28;20056;-57
2023/08/10 01:44:25;;;;;;;8.63;3.17;;;;;;;;;;5088317;28;20511;-57
2023/08/10 01:46:53;;;;;;;7.07;2.70;;;;;;;;;;5082963;28;20050;-57
2023/08/10 01:49:21;;;;;;;8.18;3.45;;;;;;;;;;5106573;28;20067;-57
2023/08/10 01:51:47;;;;;;;10.07;3.08;;;;;;;;;;5092625;28;20526;-57
2023/08/10 01:54:15;;;;;;;5.97;3.03;;;;;;;;;;5089175;28;20048;-57
2023/08/10 01:56:41;;;;;;;5.30;2.55;;;;;;;;;;5086076;28;20484;-57
2023/08/10 01:59:07;;;;;;;8.73;3.13;;;;;;;;;;5085616;28;20047;-56
2023/08/10 02:01:33;;;;;;;7.35;3.25;;;;;;;;;;5085893;28;20039;-57
2023/08/10 02:03:59;;;;;;;6.10;2.38;;;;;;;;;;5084910;28;20170;-57
2023/08/10 02:06:26;;;;;;;7.93;2.70;;;;;;;;;;5084871;28;20061;-57
2023/08/10 02:08:52;;;;;;;7.35;3.15;;;;;;;;;;5084722;28;20051;-57
2023/08/10 02:11:18;;;;;;;6.97;3.30;;;;;;;;;;5095277;28;20386;-57
2023/08/10 02:13:45;;;;;;;8.35;3.50;;;;;;;;;;5083709;28;20565;-56
2023/08/10 02:16:11;;;;;;;5.18;3.38;;;;;;;;;;5084637;28;21492;-57
2023/08/10 02:18:39;;;;;;;5.43;2.42;;;;;;;;;;5084917;28;20066;-56
2023/08/10 02:21:06;;;;;;;7.25;3.67;;;;;;;;;;5087288;28;20086;-57
2023/08/10 02:23:32;;;;;;;6.22;3.20;;;;;;;;;;5084106;28;20111;-57
2023/08/10 02:25:58;;;;;;;5.68;2.55;;;;;;;;;;5085258;28;20400;-56
2023/08/10 02:28:24;;;;;;;5.38;2.70;;;;;;;;;;5084491;28;20043;-57
2023/08/10 02:30:51;;;;;;;8.43;2.67;;;;;;;;;;5083010;28;20064;-57
2023/08/10 02:33:17;;;;;;;3.28;1.60;;;;;;;;;;5084385;28;20040;-56
2023/08/10 02:35:43;;;;;;;4.70;2.20;;;;;;;;;;5085687;28;20066;-57
2023/08/10 02:38:09;;;;;;;6.20;2.50;;;;;;;;;;5083376;28;20181;-57
2023/08/10 02:40:35;;;;;;;6.47;2.63;;;;;;;;;;5085053;28;20047;-57
2023/08/10 02:43:02;;;;;;;7.55;3.00;;;;;;;;;;5084376;28;20047;-57
2023/08/10 02:45:28;;;;;;;6.35;2.75;;;;;;;;;;5087726;28;20185;-57
2023/08/10 02:47:54;;;;;;;4.93;2.78;;;;;;;;;;5085164;28;20048;-57
2023/08/10 02:50:20;;;;;;;5.00;2.72;;;;;;;;;;5084439;28;20048;-57
2023/08/10 02:52:47;;;;;;;6.50;2.85;;;;;;;;;;5085213;28;20048;-57
2023/08/10 02:55:13;;;;;;;9.70;3.30;;;;;;;;;;5085290;28;20143;-57
2023/08/10 02:57:39;;;;;;;6.47;3.20;;;;;;;;;;5084029;28;20052;-56
2023/08/10 03:00:06;;;;;;;5.85;2.58;;;;;;;;;;5086531;28;20044;-57
2023/08/10 03:02:33;;;;;;;6.93;3.22;;;;;;;;;;5088581;28;20059;-57
2023/08/10 03:04:59;;;;;;;9.80;3.97;;;;;;;;;;5086941;28;20108;-56
2023/08/10 03:07:27;;;;;;;8.18;2.97;;;;;;;;;;5085964;28;20040;-57
2023/08/10 03:09:53;;;;;;;6.55;3.15;;;;;;;;;;5084007;28;20050;-57
2023/08/10 03:12:19;;;;;;;8.70;3.20;;;;;;;;;;5085107;28;20063;-57
2023/08/10 03:14:46;;;;;;;4.93;2.63;;;;;;;;;;5084233;28;20409;-56
2023/08/10 03:17:12;;;;;;;6.15;2.53;;;;;;;;;;5082737;28;20058;-56
2023/08/10 03:19:38;;;;;;;6.88;2.72;;;;;;;;;;5086327;28;20059;-57
2023/08/10 03:22:04;;;;;;;6.25;2.60;;;;;;;;;;5085661;28;20558;-57
2023/08/10 03:24:31;;;;;;;7.15;2.72;;;;;;;;;;5084246;28;20117;-57
2023/08/10 03:26:58;;;;;;;6.07;2.70;;;;;;;;;;5081841;28;20044;-57
2023/08/10 03:29:24;;;;;;;7.38;3.10;;;;;;;;;;5082840;28;20430;-56
2023/08/10 03:31:50;;;;;;;6.43;3.03;;;;;;;;;;5082858;28;20400;-57
2023/08/10 03:34:16;;;;;;;7.05;3.33;;;;;;;;;;5083134;28;20052;-56
2023/08/10 03:36:42;;;;;;;8.40;3.00;;;;;;;;;;5083141;28;20525;-56
2023/08/10 03:39:09;;;;;;;6.10;3.40;;;;;;;;;;5087301;28;20036;-57
2023/08/10 03:41:35;;;;;;;6.18;3.50;;;;;;;;;;5082623;28;20047;-57
2023/08/10 03:44:01;;;;;;;7.03;3.30;;;;;;;;;;5084088;28;20036;-57
2023/08/10 03:46:27;;;;;;;8.63;3.53;;;;;;;;;;5092006;28;20059;-57
2023/08/10 03:48:54;;;;;;;9.00;4.20;;;;;;;;;;5085249;28;20082;-57
2023/08/10 03:51:20;;;;;;;11.00;4.13;;;;;;;;;;5082469;28;20044;-57
2023/08/10 03:53:46;;;;;;;5.20;3.42;;;;;;;;;;5085526;28;20074;-57
2023/08/10 03:56:12;;;;;;;6.32;3.30;;;;;;;;;;5082109;28;20451;-56
2023/08/10 03:58:38;;;;;;;6.45;3.88;;;;;;;;;;5086132;28;20142;-57
2023/08/10 04:01:06;;;;;;;7.07;3.35;;;;;;;;;;5082157;28;20231;-57
2023/08/10 04:03:33;;;;;;;7.65;3.13;;;;;;;;;;5082556;28;20048;-57
2023/08/10 04:06:00;;;;;;;7.82;3.60;;;;;;;;;;5083527;28;20119;-56
2023/08/10 04:08:26;;;;;;;6.45;3.45;;;;;;;;;;5081998;28;20068;-57
2023/08/10 04:10:52;;;;;;;7.88;3.45;;;;;;;;;;5085121;28;20066;-57
2023/08/10 04:13:18;;;;;;;6.07;3.33;;;;;;;;;;5092363;28;20483;-57
2023/08/10 04:15:44;;;;;;;4.93;2.75;;;;;;;;;;5096381;28;20047;-57
2023/08/10 04:18:11;;;;;;;6.60;3.53;;;;;;;;;;5097439;28;20040;-57
2023/08/10 04:20:37;;;;;;;6.72;3.40;;;;;;;;;;5101891;28;20126;-57
2023/08/10 04:23:03;;;;;;;7.47;3.38;;;;;;;;;;5088264;28;20055;-57
2023/08/10 04:25:30;;;;;;;4.15;2.90;;;;;;;;;;5090963;28;20119;-57
2023/08/10 04:27:56;;;;;;;10.05;3.72;;;;;;;;;;5093650;28;20177;-57
2023/08/10 04:30:28;;;;;;;9.20;3.45;;;;;;;;;;5088887;28;20074;-57
2023/08/10 04:32:55;;;;;;;7.30;3.90;;;;;;;;;;5085530;28;20499;-57
2023/08/10 04:35:21;;;;;;;11.70;3.90;;;;;;;;;;5085690;28;20029;-56
2023/08/10 04:37:48;;;;;;;7.80;3.67;;;;;;;;;;5081438;28;20063;-57
2023/08/10 04:40:14;;;;;;;7.00;3.53;;;;;;;;;;5083366;28;20039;-57
2023/08/10 04:42:41;;;;;;;8.65;3.50;;;;;;;;;;5084647;28;20082;-57
2023/08/10 04:45:09;;;;;;;7.80;4.18;;;;;;;;;;5085750;28;20436;-56
2023/08/10 04:47:36;;;;;;;12.35;3.90;;;;;;;;;;5088165;28;20364;-57
2023/08/10 04:50:03;;;;;;;7.60;3.90;;;;;;;;;;5087653;28;20476;-57
2023/08/10 04:52:29;;;;;;;5.72;3.40;;;;;;;;;;5087085;28;20092;-56
2023/08/10 04:54:55;;;;;;;8.18;4.10;;;;;;;;;;5086108;28;20044;-56
2023/08/10 04:57:22;;;;;;;9.48;4.40;;;;;;;;;;5095709;28;20055;-57
2023/08/10 04:59:48;;;;;;;6.78;3.28;;;;;;;;;;5088060;28;20028;-57
2023/08/10 05:02:14;;;;;;;8.15;3.75;;;;;;;;;;5085999;28;20471;-57
2023/08/10 05:04:40;;;;;;;7.57;3.72;;;;;;;;;;5084427;28;20064;-57
2023/08/10 05:07:06;;;;;;;6.90;4.10;;;;;;;;;;5086231;28;20071;-57
2023/08/10 05:09:33;;;;;;;8.13;3.78;;;;;;;;;;5085095;28;20044;-57
2023/08/10 05:11:59;;;;;;;7.68;4.00;;;;;;;;;;5085205;28;20051;-57
2023/08/10 05:14:25;;;;;;;6.85;3.90;;;;;;;;;;5083691;28;20112;-57
2023/08/10 05:16:52;;;;;;;7.97;4.03;;;;;;;;;;5087196;28;20056;-57
2023/08/10 05:19:18;;;;;;;12.30;4.63;;;;;;;;;;5087889;28;20051;-56
2023/08/10 05:21:44;;;;;;;9.90;4.78;;;;;;;;;;5086692;28;21936;-57
2023/08/10 05:24:13;;;;;;;7.38;3.60;;;;;;;;;;5085942;28;20051;-56
2023/08/10 05:26:39;;;;;;;7.72;4.03;;;;;;;;;;5084880;28;20036;-56
2023/08/10 05:29:05;;;;;;;12.02;4.53;;;;;;;;;;5086533;28;20532;-57
2023/08/10 05:31:31;;;;;;;7.55;4.63;;;;;;;;;;5086311;28;20051;-57
2023/08/10 05:33:57;;;;;;;8.15;4.70;;;;;;;;;;5082984;28;20434;-57
2023/08/10 05:36:24;;;;;;;9.30;4.40;;;;;;;;;;5087439;28;20048;-57
2023/08/10 05:38:50;;;;;;;11.55;5.32;;;;;;;;;;5085018;28;20040;-57
2023/08/10 05:41:19;;;;;;;7.65;4.20;;;;;;;;;;5096131;28;20039;-57
2023/08/10 05:43:45;;;;;;;9.68;4.60;;;;;;;;;;5088434;28;20044;-56
2023/08/10 05:46:11;;;;;;;14.05;5.25;;;;;;;;;;5096017;28;20403;-56
2023/08/10 05:48:37;;;;;;;9.98;4.57;;;;;;;;;;5100939;28;20056;-57
2023/08/10 05:51:04;;;;;;;10.43;4.60;;;;;;;;;;5083842;28;20036;-56
2023/08/10 05:53:30;;;;;;;9.38;4.75;;;;;;;;;;5084137;28;20058;-57
2023/08/10 05:55:57;;;;;;;10.07;4.40;;;;;;;;;;5094509;28;20524;-57
2023/08/10 05:58:25;;;;;;;8.82;4.30;;;;;;;;;;5107909;28;20347;-57
2023/08/10 06:00:52;;;;;;;11.52;4.55;;;;;;;;;;5093488;28;20031;-57
2023/08/10 06:03:21;;;;;;;11.15;3.95;;;;;;;;;;5096866;28;20047;-56
2023/08/10 06:05:48;;;;;;;10.95;3.38;;;;;;;;;;5091323;28;20044;-57
2023/08/10 06:08:14;;;;;;;9.02;3.95;;;;;;;;;;5092858;28;20118;-57
2023/08/10 06:10:41;;;;;;;7.93;3.17;;;;;;;;;;5103253;28;20036;-57
2023/08/10 06:13:11;;;;;;;6.78;3.55;;;;;;;;;;5103782;28;20062;-57
2023/08/10 06:15:39;;;;;;;11.18;3.00;;;;;;;;;;5092708;28;20356;-58
2023/08/10 06:18:08;;;;;;;7.75;2.83;;;;;;;;;;5085643;28;20036;-57
2023/08/10 06:20:38;;;;;;;9.75;2.70;;;;;;;;;;5090385;28;20059;-56
2023/08/10 06:23:08;;;;;;;5.15;2.67;;;;;;;;;;5086506;28;20436;-57
2023/08/10 06:25:34;;;;;;;8.63;3.10;;;;;;;;;;5095839;28;20048;-57
2023/08/10 06:28:01;;;;;;;6.95;3.08;;;;;;;;;;5084097;28;20044;-58
2023/08/10 06:30:27;;;;;;;10.63;3.80;;;;;;;;;;5093653;28;20406;-57
2023/08/10 06:32:54;;;;;;;9.85;2.97;;;;;;;;;;5091128;28;20551;-66
2023/08/10 06:35:21;;;;;;;4.45;2.40;;;;;;;;;;5098231;28;20900;-57
2023/08/10 06:37:50;;;;;;;10.15;3.42;;;;;;;;;;5111200;28;20100;-58
2023/08/10 06:40:16;;;;;;;8.55;2.67;;;;;;;;;;5100472;28;20075;-58
2023/08/10 06:42:43;;;;;;;6.65;2.65;;;;;;;;;;5093750;28;20110;-58
2023/08/10 06:45:10;;;;;;;10.25;3.17;;;;;;;;;;5097387;28;20056;-57
2023/08/10 06:47:37;;;;;;;6.55;2.30;;;;;;;;;;5101367;28;20086;-58
2023/08/10 06:50:04;;;;;;;6.45;2.53;;;;;;;;;;5098784;28;20055;-58
2023/08/10 06:52:30;;;;;;;8.25;2.60;;;;;;;;;;5092360;28;20044;-58
2023/08/10 06:54:56;;;;;;;7.85;2.63;;;;;;;;;;5105092;28;20040;-58
2023/08/10 06:57:23;;;;;;;12.20;2.70;;;;;;;;;;5091838;28;20146;-58
2023/08/10 06:59:49;;;;;;;8.25;2.70;;;;;;;;;;5092961;28;20153;-57
2023/08/10 07:02:19;;;;;;;6.95;2.03;;;;;;;;;;5099705;28;20085;-59
2023/08/10 07:04:45;;;;;;;5.90;2.15;;;;;;;;;;5105877;28;20436;-58
2023/08/10 07:07:12;;;;;;;4.85;2.28;;;;;;;;;;5086464;28;20044;-58
2023/08/10 07:09:38;;;;;;;7.25;2.15;;;;;;;;;;5091366;28;20085;-59
2023/08/10 07:12:04;;;;;;;7.25;2.50;;;;;;;;;;5095509;28;20075;-58
2023/08/10 07:14:31;;;;;;;6.25;2.13;;;;;;;;;;5103265;28;20040;-58
2023/08/10 07:16:57;;;;;;;7.75;2.10;;;;;;;;;;5090262;28;20096;-59
2023/08/10 07:19:23;;;;;;;7.13;2.10;;;;;;;;;;5089297;28;20077;-58
2023/08/10 07:21:55;;;;;;;7.55;2.03;;;;;;;;;;5098275;28;20105;-58
2023/08/10 07:24:22;;;;;;;6.25;1.55;;;;;;;;;;5094038;28;20067;-58
2023/08/10 07:26:48;;;;;;;7.32;1.92;;;;;;;;;;5091491;28;20044;-58
2023/08/10 07:29:14;;;;;;;6.47;1.75;;;;;;;;;;5107164;28;20384;-58
2023/08/10 07:31:40;;;;;;;5.72;1.42;;;;;;;;;;5099114;28;20066;-58
2023/08/10 07:34:09;;;;;;;5.88;1.45;;;;;;;;;;5093034;28;20120;-58
2023/08/10 07:36:35;;;;;;;6.05;1.27;;;;;;;;;;5090171;28;20602;-58
2023/08/10 07:39:01;;;;;;;6.18;1.60;;;;;;;;;;5091960;28;20137;-59
2023/08/10 07:41:27;;;;;;;7.03;1.27;;;;;;;;;;5094099;28;20399;-58
2023/08/10 07:43:54;;;;;;;4.70;1.08;;;;;;;;;;5100033;28;20055;-59
2023/08/10 07:46:20;;;;;;;4.45;1.35;;;;;;;;;;5095673;28;20351;-58
2023/08/10 07:48:46;;;;;;;6.22;1.25;;;;;;;;;;5093832;28;20142;-59
2023/08/10 07:51:13;;;;;;;9.30;1.80;;;;;;;;;;5087056;28;20081;-59
2023/08/10 07:53:39;;;;;;;9.70;2.17;;;;;;;;;;5089920;28;20109;-58
2023/08/10 07:56:06;;;;;;;4.88;1.60;;;;;;;;;;5086703;28;20384;-58
2023/08/10 07:58:32;;;;;;;6.55;1.40;;;;;;;;;;5095798;28;20130;-58
2023/08/10 08:00:59;;;;;;;7.82;1.92;;;;;;;;;;5106162;28;20048;-58
2023/08/10 08:03:25;;;;;;;5.20;1.50;;;;;;;;;;5093535;28;20042;-58
2023/08/10 08:05:51;;;;;;;4.93;1.23;;;;;;;;;;5102444;28;20035;-58
2023/08/10 08:08:17;;;;;;;5.10;1.40;;;;;;;;;;5086029;28;20040;-58
2023/08/10 08:10:44;;;;;;;5.55;1.20;;;;;;;;;;5098333;28;20072;-58
2023/08/10 08:13:10;;;;;;;6.53;1.17;;;;;;;;;;5093282;28;20044;-58
2023/08/10 08:15:38;;;;;;;5.05;1.10;;;;;;;;;;5090269;28;20522;-58
2023/08/10 08:18:23;;;;;;;4.55;1.10;;;;;;;;;;5090364;28;20052;-58
2023/08/10 08:20:49;;;;;;;6.85;1.55;;;;;;;;;;5090938;28;20044;-58
2023/08/10 08:23:15;;;;;;;3.25;1.05;;;;;;;;;;5090788;28;20075;-58
2023/08/10 08:25:41;;;;;;;6.32;1.35;;;;;;;;;;5102483;28;20040;-58
2023/08/10 08:28:07;;;;;;;8.63;1.70;;;;;;;;;;5085600;28;20356;-58
2023/08/10 08:30:34;;;;;;;6.13;1.77;;;;;;;;;;5107104;28;20065;-58
2023/08/10 08:33:00;;;;;;;4.35;1.38;;;;;;;;;;5088246;28;20059;-59
2023/08/10 08:35:26;;;;;;;7.40;1.20;;;;;;;;;;5089686;28;20117;-57
2023/08/10 08:37:53;;;;;;;7.45;1.27;;;;;;;;;;5110860;28;20063;-58
2023/08/10 08:40:20;;;;;;;6.75;1.15;;;;;;;;;;5107629;28;20118;-58
2023/08/10 08:42:48;;;;;;;3.45;0.80;;;;;;;;;;5096586;28;20067;-58
2023/08/10 08:45:14;;;;;;;5.40;0.93;;;;;;;;;;5111210;28;20053;-57
2023/08/10 08:47:43;;;;;;;5.90;1.20;;;;;;;;;;5110636;28;20061;-57
2023/08/10 08:50:11;;;;;;;3.92;1.13;;;;;;;;;;5110225;28;20055;-58
2023/08/10 08:52:38;;;;;;;5.57;1.30;;;;;;;;;;5106880;28;20204;-57
2023/08/10 08:55:05;;;;;;;2.58;1.10;;;;;;;;;;5111005;28;20047;-58
2023/08/10 08:57:32;;;;;;;6.43;1.38;;;;;;;;;;5103383;28;20353;-57
2023/08/10 08:59:58;;;;;;;5.75;1.27;;;;;;;;;;5090219;28;20035;-57
2023/08/10 09:02:25;;;;;;;4.30;1.58;;;;;;;;;;5090830;28;20098;-57
2023/08/10 09:04:54;;;;;;;3.55;1.45;;;;;;;;;;5092945;28;20166;-58
2023/08/10 09:07:21;;;;;;;5.45;1.60;;;;;;;;;;5098404;28;20047;-58
2023/08/10 09:09:47;;;;;;;9.23;1.45;;;;;;;;;;5106221;28;20049;-58
2023/08/10 09:12:29;;;;;;;6.18;1.40;;;;;;;;;;5095874;28;20055;-58
2023/08/10 09:15:04;;;;;;;5.70;1.38;;;;;;;;;;5091101;28;20044;-57
2023/08/10 09:17:35;;;;;;;4.97;1.80;;;;;;;;;;5110157;28;20450;-58
2023/08/10 09:20:03;;;;;;;5.85;1.30;;;;;;;;;;5104465;28;20044;-58
2023/08/10 09:22:35;;;;;;;7.82;1.55;;;;;;;;;;5090178;28;20031;-58
2023/08/10 09:25:01;;;;;;;8.45;1.58;;;;;;;;;;5100334;28;20132;-57
2023/08/10 09:27:28;;;;;;;4.68;1.00;;;;;;;;;;5099296;28;20035;-58
2023/08/10 09:30:05;;;;;;;6.90;1.13;;;;;;;;;;5093500;28;20503;-58
2023/08/10 09:32:31;;;;;;;7.15;1.30;;;;;;;;;;5113160;28;20046;-58
2023/08/10 09:34:58;;;;;;;6.45;1.25;;;;;;;;;;5114701;28;20052;-58
2023/08/10 09:37:25;;;;;;;6.55;1.58;;;;;;;;;;5114405;28;20048;-58
2023/08/10 09:40:07;;;;;;;8.20;1.48;;;;;;;;;;5100585;28;20043;-58
2023/08/10 09:42:34;;;;;;;7.65;1.65;;;;;;;;;;5101053;28;20036;-58
2023/08/10 09:45:05;;;;;;;5.72;1.85;;;;;;;;;;5103174;28;20364;-58
2023/08/10 09:47:35;;;;;;;4.20;1.17;;;;;;;;;;5109347;28;20058;-58
2023/08/10 09:50:03;;;;;;;5.70;1.13;;;;;;;;;;5106358;27;20173;-58
2023/08/10 09:52:30;;;;;;;6.60;1.23;;;;;;;;;;5113274;28;20047;-58
2023/08/10 09:54:57;;;;;;;5.03;1.15;;;;;;;;;;5113943;28;20040;-58
2023/08/10 09:57:30;;;;;;;5.00;1.58;;;;;;;;;;5114007;28;20040;-57
2023/08/10 09:59:56;;;;;;;5.03;1.10;;;;;;;;;;5094690;28;20122;-58
2023/08/10 10:02:23;;;;;;;5.35;1.15;;;;;;;;;;5105372;28;20399;-58
2023/08/10 10:04:50;;;;;;;9.90;1.50;;;;;;;;;;5106925;28;20080;-57
2023/08/10 10:07:21;;;;;;;5.20;1.30;;;;;;;;;;5100153;28;20143;-58
2023/08/10 10:09:49;;;;;;;5.43;1.23;;;;;;;;;;5096912;27;20178;-58
2023/08/10 10:12:16;;;;;;;7.68;1.77;;;;;;;;;;5110243;28;20096;-58
2023/08/10 10:14:46;;;;;;;6.10;1.60;;;;;;;;;;5106380;28;20063;-58
2023/08/10 10:17:14;;;;;;;3.70;1.23;;;;;;;;;;5113122;28;20048;-58
2023/08/10 10:19:41;;;;;;;5.18;1.15;;;;;;;;;;5105756;28;20180;-58
2023/08/10 10:22:08;;;;;;;8.65;1.98;;;;;;;;;;5110825;28;20047;-57
2023/08/10 10:24:35;;;;;;;4.85;2.25;;;;;;;;;;5113443;27;20052;-58
2023/08/10 10:27:05;;;;;;;5.10;1.63;;;;;;;;;;5105303;28;20060;-57
2023/08/10 10:29:38;;;;;;;4.57;1.63;;;;;;;;;;5091555;28;20067;-57
2023/08/10 10:32:13;;;;;;;5.88;1.77;;;;;;;;;;5097437;28;20081;-58
2023/08/10 10:34:40;;;;;;;4.97;1.45;;;;;;;;;;5093683;27;20047;-58
2023/08/10 10:37:16;;;;;;;8.68;1.85;;;;;;;;;;5095166;28;20036;-58
2023/08/10 10:39:45;;;;;;;7.07;1.60;;;;;;;;;;5093302;28;20537;-57
2023/08/10 10:42:12;;;;;;;6.60;2.00;;;;;;;;;;5091929;28;20569;-57
2023/08/10 10:44:58;;;;;;;3.78;1.33;;;;;;;;;;5100006;28;20059;-58
2023/08/10 10:47:38;;;;;;;6.20;1.77;;;;;;;;;;5112849;28;20471;-58
2023/08/10 10:50:20;;;;;;;4.82;2.10;;;;;;;;;;5102483;28;20055;-58
2023/08/10 10:52:54;;;;;;;6.60;2.13;;;;;;;;;;5095933;28;20054;-59
2023/08/10 10:55:20;;;;;;;13.10;1.83;;;;;;;;;;5109495;28;20055;-59
2023/08/10 10:57:49;;;;;;;6.40;2.00;;;;;;;;;;5099793;27;20123;-58
2023/08/10 11:00:19;;;;;;;6.32;2.00;;;;;;;;;;5090045;28;20063;-58
2023/08/10 11:02:46;;;;;;;7.70;2.33;;;;;;;;;;5086476;28;20136;-58
2023/08/10 11:05:16;;;;;;;11.15;3.10;;;;;;;;;;5096491;28;20043;-59
2023/08/10 11:07:43;;;;;;;5.55;1.50;;;;;;;;;;5102661;28;20044;-59
2023/08/10 11:10:10;;;;;;;10.15;3.03;;;;;;;;;;5098121;28;20047;-59
2023/08/10 11:12:40;;;;;;;5.78;2.30;;;;;;;;;;5112641;28;20046;-59
2023/08/10 11:15:08;;;;;;;5.97;2.15;;;;;;;;;;5094921;28;20062;-59
2023/08/10 11:17:34;;;;;;;4.63;1.77;;;;;;;;;;5110307;28;20035;-58
2023/08/10 11:20:01;;;;;;;6.20;2.00;;;;;;;;;;5112287;28;20163;-59
2023/08/10 11:22:27;;;;;;;3.45;1.80;;;;;;;;;;5112462;28;20045;-59
2023/08/10 11:24:53;;;;;;;5.45;1.70;;;;;;;;;;5106233;28;20043;-58
2023/08/10 11:27:20;;;;;;;7.20;1.80;;;;;;;;;;5109443;28;20069;-59
2023/08/10 11:29:48;;;;;;;6.55;1.92;;;;;;;;;;5088932;28;20044;-58
2023/08/10 11:32:14;;;;;;;5.00;2.05;;;;;;;;;;5089965;28;20036;-59
2023/08/10 11:34:40;;;;;;;6.63;2.22;;;;;;;;;;5093938;28;20074;-66
2023/08/10 11:37:07;;;;;;;4.95;2.03;;;;;;;;;;5093831;28;20055;-58
2023/08/10 11:39:33;;;;;;;7.30;2.30;;;;;;;;;;5089085;28;20039;-59
2023/08/10 11:41:59;;;;;;;4.45;2.13;;;;;;;;;;5086163;28;20043;-59
2023/08/10 11:44:26;;;;;;;4.82;1.95;;;;;;;;;;5081277;28;20028;-58
2023/08/10 11:46:57;;;;;;;6.00;2.30;;;;;;;;;;5086332;28;20411;-58
2023/08/10 11:49:33;;;;;;;8.65;2.08;;;;;;;;;;5086302;28;20394;-58
2023/08/10 11:52:03;;;;;;;5.95;2.00;;;;;;;;;;5087610;28;20036;-58
2023/08/10 11:54:30;;;;;;;5.78;1.73;;;;;;;;;;5088148;28;20044;-58
2023/08/10 11:57:08;;;;;;;5.38;2.03;;;;;;;;;;5089669;28;20036;-58
2023/08/10 11:59:37;;;;;;;9.27;2.00;;;;;;;;;;5086150;28;20036;-59
2023/08/10 12:02:04;;;;;;;6.00;2.35;;;;;;;;;;5089277;28;20099;-63
2023/08/10 12:04:31;;;;;;;6.18;2.15;;;;;;;;;;5092872;28;20047;-58
2023/08/10 12:06:57;;;;;;;4.05;1.77;;;;;;;;;;5089950;28;20525;-58
2023/08/10 12:09:28;;;;;;;6.90;2.03;;;;;;;;;;5091151;28;20356;-58
2023/08/10 12:11:55;;;;;;;7.47;1.70;;;;;;;;;;5088669;28;20044;-58
2023/08/10 12:14:21;;;;;;;4.47;2.00;;;;;;;;;;5089619;28;20036;-58
2023/08/10 12:16:47;;;;;;;5.78;2.20;;;;;;;;;;5088631;28;20085;-58
2023/08/10 12:19:13;;;;;;;6.15;2.03;;;;;;;;;;5090487;28;20042;-58
2023/08/10 12:21:39;;;;;;;7.10;2.10;;;;;;;;;;5088976;28;20112;-58
2023/08/10 12:24:06;;;;;;;5.65;2.55;;;;;;;;;;5090309;28;20106;-58
2023/08/10 12:26:32;;;;;;;7.90;2.33;;;;;;;;;;5089417;28;20083;-58
2023/08/10 12:28:58;;;;;;;9.57;2.55;;;;;;;;;;5090077;28;20419;-58
2023/08/10 12:31:25;;;;;;;5.65;2.63;;;;;;;;;;5090770;28;20487;-59
2023/08/10 12:33:55;;;;;;;5.57;2.42;;;;;;;;;;5089960;28;20090;-59
2023/08/10 12:36:21;;;;;;;11.52;2.45;;;;;;;;;;5089819;28;20048;-59
2023/08/10 12:38:47;;;;;;;8.90;2.67;;;;;;;;;;5089530;28;20400;-59
2023/08/10 12:41:13;;;;;;;6.28;3.22;;;;;;;;;;5088559;28;20036;-58
2023/08/10 12:43:40;;;;;;;6.45;3.00;;;;;;;;;;5088369;28;20051;-57
2023/08/10 12:46:06;;;;;;;8.88;3.05;;;;;;;;;;5091603;28;20157;-58
2023/08/10 12:48:33;;;;;;;7.55;3.53;;;;;;;;;;5091637;28;20056;-57
2023/08/10 12:50:59;;;;;;;8.82;3.33;;;;;;;;;;5104377;28;20570;-59
2023/08/10 12:53:25;;;;;;;9.45;3.58;;;;;;;;;;5097476;28;20040;-59
2023/08/10 12:55:52;;;;;;;10.30;3.83;;;;;;;;;;5110225;28;20044;-59
2023/08/10 12:58:19;;;;;;;10.77;4.05;;;;;;;;;;5110876;28;20035;-59
2023/08/10 13:00:45;;;;;;;12.00;3.88;;;;;;;;;;5090849;28;20047;-59
2023/08/10 13:03:12;;;;;;;5.57;3.85;;;;;;;;;;5087971;28;20369;-58
2023/08/10 13:05:38;;;;;;;7.55;4.20;;;;;;;;;;5096373;28;20113;-59
2023/08/10 13:08:04;;;;;;;10.48;4.45;;;;;;;;;;5108988;28;20102;-59
2023/08/10 13:10:31;;;;;;;8.40;4.15;;;;;;;;;;5105621;28;20414;-59
2023/08/10 13:12:57;;;;;;;9.25;4.35;;;;;;;;;;5102206;28;20089;-59
2023/08/10 13:15:24;;;;;;;8.70;4.30;;;;;;;;;;5112961;28;20054;-59
2023/08/10 13:17:50;;;;;;;9.30;4.43;;;;;;;;;;5109317;28;20398;-59
2023/08/10 13:20:16;;;;;;;7.90;4.22;;;;;;;;;;5102153;27;20048;-59
2023/08/10 13:22:44;;;;;;;11.27;5.05;;;;;;;;;;5100709;28;20131;-59
2023/08/10 13:25:10;;;;;;;14.32;5.05;;;;;;;;;;5109163;28;20444;-59
2023/08/10 13:27:36;;;;;;;7.10;3.72;;;;;;;;;;5114896;27;20395;-59
2023/08/10 13:30:03;;;;;;;8.23;3.80;;;;;;;;;;5114008;28;20083;-59
2023/08/10 13:32:29;;;;;;;11.65;4.40;;;;;;;;;;5104947;28;20490;-59
2023/08/10 13:34:56;;;;;;;6.88;4.55;;;;;;;;;;5108363;28;20119;-59
2023/08/10 13:37:22;;;;;;;9.43;4.35;;;;;;;;;;5110859;28;20114;-59
2023/08/10 13:39:51;;;;;;;12.15;4.78;;;;;;;;;;5103952;28;20376;-58
2023/08/10 13:42:17;;;;;;;9.20;4.20;;;;;;;;;;5092301;28;20040;-59
2023/08/10 13:44:43;;;;;;;9.32;4.57;;;;;;;;;;5098866;28;20072;-59
2023/08/10 13:47:10;;;;;;;8.60;5.20;;;;;;;;;;5113895;28;20047;-60
2023/08/10 13:49:36;;;;;;;8.57;5.05;;;;;;;;;;5108935;28;20105;-59
2023/08/10 13:52:03;;;;;;;9.30;4.88;;;;;;;;;;5104258;28;20066;-59
2023/08/10 13:54:29;;;;;;;11.00;5.05;;;;;;;;;;5114276;28;20047;-59
2023/08/10 13:57:04;;;;;;;10.40;5.68;;;;;;;;;;5095688;28;20160;-59
2023/08/10 13:59:33;;;;;;;8.32;5.15;;;;;;;;;;5113454;28;20055;-59
2023/08/10 14:01:59;;;;;;;6.75;4.57;;;;;;;;;;5108524;28;20039;-60
2023/08/10 14:04:25;;;;;;;12.32;5.32;;;;;;;;;;5093636;28;20105;-59
2023/08/10 14:06:52;;;;;;;9.65;4.85;;;;;;;;;;5092081;28;20044;-59
2023/08/10 14:09:18;;;;;;;12.20;6.13;;;;;;;;;;5097522;28;20117;-59
2023/08/10 14:11:47;;;;;;;13.50;6.40;;;;;;;;;;5091705;28;20139;-58
2023/08/10 14:14:14;;;;;;;10.23;5.25;;;;;;;;;;5104714;28;20092;-58
2023/08/10 14:16:40;;;;;;;10.55;5.95;;;;;;;;;;5108306;28;20066;-59
2023/08/10 14:19:06;;;;;;;13.52;5.82;;;;;;;;;;5113443;28;20484;-59
2023/08/10 14:21:36;;;;;;;9.48;5.50;;;;;;;;;;5091324;28;20152;-59
2023/08/10 14:24:02;;;;;;;8.77;5.25;;;;;;;;;;5112995;28;20054;-59
2023/08/10 14:26:28;;;;;;;9.88;5.68;;;;;;;;;;5112780;28;20044;-59
2023/08/10 14:28:55;;;;;;;11.77;5.70;;;;;;;;;;5113314;28;20410;-59
2023/08/10 14:31:21;;;;;;;10.30;5.13;;;;;;;;;;5113404;28;20123;-59
2023/08/10 14:33:47;;;;;;;12.73;5.60;;;;;;;;;;5112446;28;20031;-59
2023/08/10 14:36:14;;;;;;;11.00;5.95;;;;;;;;;;5089681;28;20036;-59
2023/08/10 14:38:41;;;;;;;9.98;5.15;;;;;;;;;;5103558;28;20396;-59
2023/08/10 14:41:07;;;;;;;8.07;4.35;;;;;;;;;;5084539;28;20051;-58